createdAt,value
2018-03-26T00:01:45.949Z,7.54
2018-03-26T00:04:12.229Z,7.55
2018-03-26T00:06:38.524Z,7.57
2018-03-26T00:09:04.832Z,7.55
2018-03-26T00:11:31.097Z,7.53
2018-03-26T00:13:57.391Z,7.48
2018-03-26T00:16:23.649Z,7.46
2018-03-26T00:18:49.931Z,7.56
2018-03-26T00:21:16.218Z,7.59
2018-03-26T00:23:42.466Z,7.58
2018-03-26T00:26:08.722Z,7.56
2018-03-26T00:28:34.999Z,7.58
2018-03-26T00:31:01.272Z,7.65
2018-03-26T00:33:27.558Z,7.67
2018-03-26T00:35:53.873Z,7.68
2018-03-26T00:38:20.164Z,7.67
2018-03-26T00:40:46.425Z,7.69
2018-03-26T00:43:12.661Z,7.74
2018-03-26T00:45:38.905Z,7.79
2018-03-26T00:48:05.184Z,7.80
2018-03-26T00:50:31.457Z,7.83
2018-03-26T00:52:57.704Z,7.80
2018-03-26T00:55:23.938Z,7.68
2018-03-26T00:57:50.180Z,7.63
2018-03-26T01:00:16.501Z,7.67
2018-03-26T01:02:42.888Z,7.65
2018-03-26T01:05:09.132Z,7.62
2018-03-26T01:07:35.436Z,7.59
2018-03-26T01:10:01.717Z,7.54
2018-03-26T01:12:27.973Z,7.55
2018-03-26T01:14:54.241Z,7.67
2018-03-26T01:17:20.473Z,7.74
2018-03-26T01:19:46.701Z,7.79
2018-03-26T01:22:13.002Z,7.78
2018-03-26T01:24:39.233Z,7.80
2018-03-26T01:27:05.492Z,7.82
2018-03-26T01:29:31.764Z,7.72
2018-03-26T01:31:58.010Z,7.74
2018-03-26T01:34:24.319Z,7.75
2018-03-26T01:36:50.592Z,7.75
2018-03-26T01:39:16.900Z,7.72
2018-03-26T01:41:43.196Z,7.76
2018-03-26T01:44:09.421Z,7.80
2018-03-26T01:46:35.674Z,7.78
2018-03-26T01:49:01.945Z,7.81
2018-03-26T01:51:28.246Z,7.80
2018-03-26T01:53:54.483Z,7.79
2018-03-26T01:56:20.720Z,7.79
2018-03-26T01:58:46.977Z,7.77
2018-03-26T02:01:13.206Z,7.78
2018-03-26T02:03:39.514Z,7.79
2018-03-26T02:06:05.812Z,7.80
2018-03-26T02:08:32.065Z,7.75
2018-03-26T02:10:58.332Z,7.74
2018-03-26T02:13:24.609Z,7.76
2018-03-26T02:15:50.889Z,7.74
2018-03-26T02:18:17.180Z,7.73
2018-03-26T02:20:43.407Z,7.74
2018-03-26T02:23:09.677Z,7.77
2018-03-26T02:25:35.933Z,7.78
2018-03-26T02:28:02.229Z,7.79
2018-03-26T02:30:28.502Z,7.81
2018-03-26T02:32:54.741Z,7.80
2018-03-26T02:35:20.982Z,7.79
2018-03-26T02:37:47.288Z,7.78
2018-03-26T02:40:13.537Z,7.71
2018-03-26T02:42:39.787Z,7.63
2018-03-26T02:45:06.050Z,7.67
2018-03-26T02:47:32.294Z,7.71
2018-03-26T02:49:58.533Z,7.66
2018-03-26T02:52:24.812Z,7.70
2018-03-26T02:54:51.053Z,7.71
2018-03-26T02:57:18.385Z,7.73
2018-03-26T02:59:44.653Z,7.76
2018-03-26T03:02:10.898Z,7.78
2018-03-26T03:04:37.154Z,7.79
2018-03-26T03:07:03.436Z,7.84
2018-03-26T03:09:29.677Z,7.84
2018-03-26T03:11:55.929Z,7.85
2018-03-26T03:14:22.188Z,7.82
2018-03-26T03:16:48.417Z,7.80
2018-03-26T03:19:14.668Z,7.81
2018-03-26T03:21:40.944Z,7.81
2018-03-26T03:24:07.177Z,7.78
2018-03-26T03:26:33.402Z,7.85
2018-03-26T03:28:59.692Z,7.86
2018-03-26T03:31:25.949Z,7.83
2018-03-26T03:33:52.200Z,7.84
2018-03-26T03:36:18.469Z,7.86
2018-03-26T03:38:44.717Z,7.93
2018-03-26T03:41:10.964Z,7.92
2018-03-26T03:43:37.249Z,7.94
2018-03-26T03:46:03.519Z,7.94
2018-03-26T03:48:29.944Z,7.94
2018-03-26T03:50:56.328Z,7.93
2018-03-26T03:53:22.599Z,7.94
2018-03-26T03:55:49.027Z,7.99
2018-03-26T03:58:15.360Z,7.95
2018-03-26T04:00:41.632Z,7.97
2018-03-26T04:03:07.889Z,7.97
2018-03-26T04:05:34.160Z,7.96
2018-03-26T04:08:00.437Z,7.93
2018-03-26T04:10:26.716Z,7.93
2018-03-26T04:12:54.109Z,7.94
2018-03-26T04:15:20.384Z,7.96
2018-03-26T04:17:46.620Z,7.99
2018-03-26T04:20:12.949Z,7.99
2018-03-26T04:22:39.209Z,7.99
2018-03-26T04:25:05.479Z,7.96
2018-03-26T04:27:31.777Z,7.95
2018-03-26T04:29:58.049Z,7.94
2018-03-26T04:32:24.302Z,7.89
2018-03-26T04:34:50.633Z,7.80
2018-03-26T04:37:16.953Z,7.76
2018-03-26T04:39:43.201Z,7.85
2018-03-26T04:42:09.484Z,7.77
2018-03-26T04:44:35.764Z,7.79
2018-03-26T04:47:02.038Z,7.78
2018-03-26T04:49:28.310Z,7.77
2018-03-26T04:51:54.608Z,7.82
2018-03-26T04:54:20.889Z,7.77
2018-03-26T04:56:47.149Z,7.76
2018-03-26T04:59:13.414Z,7.66
2018-03-26T05:01:39.653Z,7.77
2018-03-26T05:04:07.049Z,7.78
2018-03-26T05:06:33.285Z,7.76
2018-03-26T05:08:59.596Z,7.80
2018-03-26T05:11:25.867Z,7.83
2018-03-26T05:13:52.101Z,7.87
2018-03-26T05:16:18.328Z,7.91
2018-03-26T05:18:44.593Z,7.96
2018-03-26T05:21:10.837Z,7.92
2018-03-26T05:23:37.090Z,7.93
2018-03-26T05:26:03.477Z,7.95
2018-03-26T05:28:29.711Z,7.90
2018-03-26T05:30:55.970Z,7.84
2018-03-26T05:33:22.238Z,7.70
2018-03-26T05:35:48.476Z,7.66
2018-03-26T05:38:14.712Z,7.73
2018-03-26T05:40:40.980Z,7.83
2018-03-26T05:43:07.211Z,7.83
2018-03-26T05:45:33.464Z,7.86
2018-03-26T05:47:59.797Z,7.96
2018-03-26T05:50:26.054Z,8.01
2018-03-26T05:52:52.284Z,7.83
2018-03-26T05:55:18.558Z,7.72
2018-03-26T05:57:44.812Z,7.62
2018-03-26T06:00:11.078Z,7.69
2018-03-26T06:02:37.337Z,7.75
2018-03-26T06:05:03.572Z,7.67
2018-03-26T06:07:29.805Z,7.56
2018-03-26T06:09:56.084Z,7.63
2018-03-26T06:12:22.340Z,7.61
2018-03-26T06:14:48.588Z,7.66
2018-03-26T06:17:15.941Z,7.68
2018-03-26T06:19:42.216Z,7.76
2018-03-26T06:22:08.561Z,7.87
2018-03-26T06:24:34.894Z,7.94
2018-03-26T06:27:01.192Z,8.07
2018-03-26T06:29:27.497Z,8.15
2018-03-26T06:31:53.820Z,8.19
2018-03-26T06:34:20.097Z,8.19
2018-03-26T06:39:44.932Z,8.24
2018-03-26T06:42:11.209Z,8.30
2018-03-26T06:44:37.474Z,8.28
2018-03-26T06:47:03.758Z,8.28
2018-03-26T06:49:30.063Z,8.09
2018-03-26T06:51:56.308Z,8.22
2018-03-26T06:54:22.537Z,8.25
2018-03-26T06:56:48.844Z,8.25
2018-03-26T06:59:15.108Z,8.33
2018-03-26T07:01:41.344Z,8.43
2018-03-26T07:04:07.625Z,8.46
2018-03-26T07:06:33.852Z,8.53
2018-03-26T07:09:00.093Z,8.54
2018-03-26T07:11:26.377Z,8.54
2018-03-26T07:13:52.649Z,8.55
2018-03-26T07:16:18.933Z,8.49
2018-03-26T07:18:45.213Z,8.58
2018-03-26T07:21:11.460Z,8.65
2018-03-26T07:23:37.718Z,8.62
2018-03-26T07:26:04.017Z,8.60
2018-03-26T07:28:30.285Z,8.59
2018-03-26T07:30:56.540Z,8.52
2018-03-26T07:33:22.817Z,8.54
2018-03-26T07:35:49.074Z,8.57
2018-03-26T07:38:15.329Z,8.60
2018-03-26T07:40:41.606Z,8.57
2018-03-26T07:43:07.841Z,8.66
2018-03-26T07:45:34.081Z,8.59
2018-03-26T07:48:00.393Z,8.61
2018-03-26T07:50:26.633Z,8.72
2018-03-26T07:52:52.861Z,8.78
2018-03-26T07:55:19.184Z,8.85
2018-03-26T07:57:45.417Z,8.87
2018-03-26T08:00:11.724Z,8.99
2018-03-26T08:02:38.000Z,9.06
2018-03-26T08:05:04.281Z,9.11
2018-03-26T08:07:30.536Z,9.24
2018-03-26T08:09:56.808Z,9.44
2018-03-26T08:12:23.045Z,9.61
2018-03-26T08:14:49.291Z,9.77
2018-03-26T08:17:15.581Z,9.84
2018-03-26T08:19:41.809Z,9.97
2018-03-26T08:22:08.093Z,10.14
2018-03-26T08:24:34.424Z,10.30
2018-03-26T08:27:00.673Z,10.36
2018-03-26T08:29:26.940Z,10.50
2018-03-26T08:31:53.295Z,10.64
2018-03-26T08:34:19.525Z,10.92
2018-03-26T08:36:45.788Z,11.05
2018-03-26T08:39:12.069Z,11.13
2018-03-26T08:41:38.314Z,11.32
2018-03-26T08:44:04.564Z,11.38
2018-03-26T08:46:30.860Z,11.67
2018-03-26T08:48:57.135Z,11.92
2018-03-26T08:51:23.401Z,12.17
2018-03-26T08:53:49.697Z,12.37
2018-03-26T08:56:15.994Z,12.59
2018-03-26T08:58:42.232Z,12.75
2018-03-26T09:01:08.577Z,12.90
2018-03-26T09:03:34.865Z,13.10
2018-03-26T09:06:01.114Z,13.30
2018-03-26T09:08:27.380Z,13.46
2018-03-26T09:10:53.641Z,13.66
2018-03-26T09:13:26.990Z,13.57
2018-03-26T09:15:53.245Z,13.52
2018-03-26T09:18:19.502Z,13.44
2018-03-26T09:20:45.832Z,13.16
2018-03-26T09:23:12.116Z,13.02
2018-03-26T09:25:38.382Z,13.14
2018-03-26T09:28:04.684Z,13.22
2018-03-26T09:30:30.930Z,13.25
2018-03-26T09:32:57.182Z,13.35
2018-03-26T09:35:23.579Z,13.30
2018-03-26T09:37:49.865Z,13.23
2018-03-26T09:40:16.148Z,13.30
2018-03-26T09:42:42.488Z,13.33
2018-03-26T09:45:08.762Z,13.04
2018-03-26T09:47:35.036Z,12.90
2018-03-26T09:50:01.364Z,12.69
2018-03-26T09:52:27.634Z,12.70
2018-03-26T09:54:53.939Z,12.67
2018-03-26T09:57:20.256Z,12.56
2018-03-26T09:59:46.562Z,12.41
2018-03-26T10:02:12.854Z,12.29
2018-03-26T10:04:39.138Z,12.26
2018-03-26T10:07:05.411Z,12.13
2018-03-26T10:09:31.684Z,12.03
2018-03-26T10:11:57.964Z,12.15
2018-03-26T10:14:24.210Z,12.30
2018-03-26T10:16:50.474Z,12.36
2018-03-26T10:19:16.768Z,12.36
2018-03-26T10:21:43.009Z,12.41
2018-03-26T10:24:09.268Z,12.46
2018-03-26T10:26:35.572Z,12.32
2018-03-26T10:29:01.841Z,12.18
2018-03-26T10:31:28.084Z,12.08
2018-03-26T10:33:54.445Z,12.10
2018-03-26T10:36:20.688Z,12.21
2018-03-26T10:38:46.933Z,12.22
2018-03-26T10:41:13.241Z,12.22
2018-03-26T10:43:39.513Z,12.24
2018-03-26T10:46:05.816Z,12.19
2018-03-26T10:48:32.089Z,12.12
2018-03-26T10:50:58.356Z,12.01
2018-03-26T10:53:24.620Z,11.91
2018-03-26T10:55:50.904Z,11.85
2018-03-26T10:58:17.161Z,11.82
2018-03-26T11:00:43.416Z,11.83
2018-03-26T11:03:09.716Z,11.82
2018-03-26T11:05:35.995Z,11.80
2018-03-26T11:08:02.252Z,11.64
2018-03-26T11:10:28.558Z,11.65
2018-03-26T11:12:54.833Z,11.53
2018-03-26T11:15:21.117Z,11.55
2018-03-26T11:17:47.401Z,11.48
2018-03-26T11:20:13.661Z,11.39
2018-03-26T11:22:39.960Z,11.39
2018-03-26T11:25:06.273Z,11.40
2018-03-26T11:27:32.517Z,11.40
2018-03-26T11:29:58.812Z,11.31
2018-03-26T11:32:25.083Z,11.34
2018-03-26T11:34:51.340Z,11.20
2018-03-26T11:37:17.589Z,11.22
2018-03-26T11:39:44.006Z,11.24
2018-03-26T11:42:10.260Z,11.23
2018-03-26T11:44:36.508Z,11.09
2018-03-26T11:47:02.800Z,11.05
2018-03-26T11:49:29.116Z,11.00
2018-03-26T11:51:55.333Z,10.94
2018-03-26T11:54:21.608Z,10.91
2018-03-26T11:56:47.853Z,10.86
2018-03-26T11:59:14.153Z,10.87
2018-03-26T12:01:40.444Z,10.87
2018-03-26T12:04:06.716Z,10.84
2018-03-26T12:06:32.957Z,10.82
2018-03-26T12:08:59.242Z,10.73
2018-03-26T12:11:25.493Z,10.64
2018-03-26T12:13:51.741Z,10.60
2018-03-26T12:16:18.019Z,10.52
2018-03-26T12:18:44.279Z,10.54
2018-03-26T12:21:10.568Z,10.50
2018-03-26T12:23:48.909Z,10.38
2018-03-26T12:26:15.181Z,10.32
2018-03-26T12:28:53.580Z,10.30
2018-03-26T12:31:19.825Z,10.31
2018-03-26T12:33:58.287Z,10.26
2018-03-26T12:36:24.634Z,10.28
2018-03-26T12:38:50.906Z,10.20
2018-03-26T12:41:17.181Z,10.28
2018-03-26T12:43:43.455Z,10.35
2018-03-26T12:46:21.932Z,10.28
2018-03-26T12:48:48.186Z,10.20
2018-03-26T12:51:26.681Z,10.18
2018-03-26T12:53:52.941Z,10.29
2018-03-26T12:56:19.190Z,10.27
2018-03-26T12:58:48.578Z,10.32
2018-03-26T13:01:27.089Z,10.35
2018-03-26T13:03:53.383Z,10.39
2018-03-26T13:06:19.657Z,10.43
2018-03-26T13:08:45.938Z,10.49
2018-03-26T13:11:12.269Z,10.39
2018-03-26T13:13:38.507Z,10.26
2018-03-26T13:16:04.809Z,10.31
2018-03-26T13:18:31.094Z,10.26
2018-03-26T13:20:57.357Z,10.21
2018-03-26T13:23:23.637Z,10.11
2018-03-26T13:25:49.926Z,10.05
2018-03-26T13:28:16.254Z,10.04
2018-03-26T13:30:42.504Z,10.04
2018-03-26T13:33:08.778Z,9.93
2018-03-26T13:35:35.050Z,9.91
2018-03-26T13:38:01.301Z,9.93
2018-03-26T13:40:27.564Z,9.92
2018-03-26T13:42:53.829Z,9.85
2018-03-26T13:45:20.066Z,9.82
2018-03-26T13:47:46.333Z,9.85
2018-03-26T13:50:12.585Z,9.77
2018-03-26T13:52:38.860Z,9.72
2018-03-26T13:55:05.164Z,9.74
2018-03-26T13:57:31.441Z,9.65
2018-03-26T13:59:57.694Z,9.61
2018-03-26T14:02:23.974Z,9.58
2018-03-26T14:04:50.227Z,9.48
2018-03-26T14:07:16.465Z,9.38
2018-03-26T14:09:54.972Z,9.37
2018-03-26T14:12:33.460Z,9.28
2018-03-26T14:15:11.946Z,9.26
2018-03-26T14:17:49.237Z,9.34
2018-03-26T14:20:15.552Z,9.42
2018-03-26T14:22:41.820Z,9.41
2018-03-26T14:25:08.148Z,9.39
2018-03-26T14:27:34.440Z,9.37
2018-03-26T14:30:00.689Z,9.39
2018-03-26T14:32:27.027Z,9.34
2018-03-26T14:35:05.701Z,9.32
2018-03-26T14:37:31.905Z,9.34
2018-03-26T14:39:58.157Z,9.29
2018-03-26T14:42:24.470Z,9.26
2018-03-26T14:44:50.738Z,9.24
2018-03-26T14:47:17.012Z,9.27
2018-03-26T14:49:43.290Z,9.29
2018-03-26T14:52:09.553Z,9.27
2018-03-26T14:54:36.678Z,9.30
2018-03-26T14:57:02.973Z,9.28
2018-03-26T14:59:29.243Z,9.19
2018-03-26T15:01:55.492Z,9.18
2018-03-26T15:04:21.828Z,9.09
2018-03-26T15:06:48.105Z,9.06
2018-03-26T15:09:14.362Z,9.02
2018-03-26T15:11:40.633Z,8.96
2018-03-26T15:14:06.872Z,8.96
2018-03-26T15:16:33.107Z,8.97
2018-03-26T15:18:59.428Z,8.98
2018-03-26T15:21:25.664Z,8.98
2018-03-26T15:23:52.228Z,9.01
2018-03-26T15:26:18.585Z,9.07
2018-03-26T15:28:44.964Z,9.13
2018-03-26T15:31:11.218Z,9.16
2018-03-26T15:33:37.543Z,9.17
2018-03-26T15:36:03.828Z,9.15
2018-03-26T15:38:30.065Z,9.06
2018-03-26T15:40:56.573Z,9.08
2018-03-26T15:43:22.817Z,9.09
2018-03-26T15:45:49.049Z,9.12
2018-03-26T15:48:15.333Z,9.19
2018-03-26T15:50:41.637Z,9.21
2018-03-26T15:53:07.834Z,9.22
2018-03-26T15:55:34.116Z,9.27
2018-03-26T15:58:00.519Z,9.33
2018-03-26T16:00:26.773Z,9.29
2018-03-26T16:02:59.153Z,9.30
2018-03-26T16:05:25.500Z,9.43
2018-03-26T16:07:51.743Z,9.41
2018-03-26T16:10:18.017Z,9.29
2018-03-26T16:12:44.270Z,9.32
2018-03-26T16:15:10.570Z,9.45
2018-03-26T16:17:36.842Z,9.47
2018-03-26T16:20:03.125Z,9.33
2018-03-26T16:22:29.366Z,9.42
2018-03-26T16:24:55.638Z,9.28
2018-03-26T16:27:21.878Z,9.13
2018-03-26T16:29:48.123Z,9.11
2018-03-26T16:32:14.413Z,9.05
2018-03-26T16:34:40.668Z,8.97
2018-03-26T16:37:06.912Z,8.83
2018-03-26T16:39:33.213Z,8.84
2018-03-26T16:42:11.474Z,8.69
2018-03-26T16:44:37.804Z,8.60
2018-03-26T16:47:04.045Z,8.48
2018-03-26T16:49:30.371Z,8.47
2018-03-26T16:51:56.650Z,8.51
2018-03-26T16:54:22.909Z,8.43
2018-03-26T16:56:49.169Z,8.26
2018-03-26T16:59:15.424Z,8.41
2018-03-26T17:01:41.677Z,8.35
2018-03-26T17:04:07.969Z,8.51
2018-03-26T17:06:34.332Z,8.38
2018-03-26T17:09:00.568Z,8.40
2018-03-26T17:11:26.801Z,8.45
2018-03-26T17:13:53.064Z,8.45
2018-03-26T17:16:19.317Z,8.49
2018-03-26T17:18:45.566Z,8.48
2018-03-26T17:21:12.242Z,8.40
2018-03-26T17:23:38.906Z,8.41
2018-03-26T17:26:05.177Z,8.37
2018-03-26T17:28:31.565Z,8.28
2018-03-26T17:30:57.883Z,8.35
2018-03-26T17:33:24.273Z,8.34
2018-03-26T17:35:50.577Z,8.26
2018-03-26T17:38:16.845Z,8.22
2018-03-26T17:40:43.109Z,8.18
2018-03-26T17:43:09.484Z,8.18
2018-03-26T17:45:35.817Z,8.20
2018-03-26T17:48:02.155Z,8.33
2018-03-26T17:50:28.444Z,8.26
2018-03-26T17:52:54.789Z,8.25
2018-03-26T17:57:55.827Z,8.29
2018-03-26T18:00:22.177Z,8.37
2018-03-26T18:02:48.552Z,8.46
2018-03-26T18:05:14.997Z,8.54
2018-03-26T18:07:41.236Z,8.54
2018-03-26T18:10:07.666Z,8.53
2018-03-26T18:12:33.871Z,8.49
2018-03-26T18:15:00.338Z,8.50
2018-03-26T18:17:26.595Z,8.48
2018-03-26T18:19:53.194Z,8.52
2018-03-26T18:22:19.448Z,8.43
2018-03-26T18:24:45.719Z,8.38
2018-03-26T18:27:11.984Z,8.36
2018-03-26T18:29:38.350Z,8.39
2018-03-26T18:32:04.630Z,8.39
2018-03-26T18:34:31.035Z,8.42
2018-03-26T18:36:57.265Z,8.45
2018-03-26T18:39:23.594Z,8.49
2018-03-26T18:41:49.905Z,8.49
2018-03-26T18:44:16.348Z,8.50
2018-03-26T18:46:42.629Z,8.56
2018-03-26T18:49:08.969Z,8.50
2018-03-26T18:51:35.472Z,8.51
2018-03-26T18:54:01.802Z,8.58
2018-03-26T18:56:28.062Z,8.58
2018-03-26T18:58:54.316Z,8.59
2018-03-26T19:01:20.553Z,8.58
2018-03-26T19:03:47.100Z,8.55
2018-03-26T19:06:13.417Z,8.51
2018-03-26T19:08:39.745Z,8.51
2018-03-26T19:11:06.009Z,8.53
2018-03-26T19:13:32.274Z,8.48
2018-03-26T19:15:58.596Z,8.48
2018-03-26T19:18:24.913Z,8.52
2018-03-26T19:20:51.300Z,8.55
2018-03-26T19:23:17.532Z,8.58
2018-03-26T19:25:43.928Z,8.54
2018-03-26T19:28:10.185Z,8.54
2018-03-26T19:30:36.498Z,8.53
2018-03-26T19:33:02.760Z,8.53
2018-03-26T19:35:29.049Z,8.48
2018-03-26T19:37:55.298Z,8.47
2018-03-26T19:40:21.605Z,8.44
2018-03-26T19:42:47.895Z,8.39
2018-03-26T19:45:14.276Z,8.42
2018-03-26T19:47:40.758Z,8.29
2018-03-26T19:50:07.069Z,8.26
2018-03-26T19:52:33.359Z,8.10
2018-03-26T19:54:59.621Z,7.95
2018-03-26T19:57:25.807Z,7.81
2018-03-26T19:59:52.134Z,7.80
2018-03-26T20:02:18.404Z,7.83
2018-03-26T20:04:44.747Z,7.80
2018-03-26T20:07:10.993Z,7.76
2018-03-26T20:09:37.304Z,7.72
2018-03-26T20:12:04.812Z,7.62
2018-03-26T20:14:31.049Z,7.67
2018-03-26T20:16:57.395Z,7.63
2018-03-26T20:19:23.631Z,7.59
2018-03-26T20:21:49.961Z,7.42
2018-03-26T20:24:16.265Z,7.42
2018-03-26T20:26:42.516Z,7.49
2018-03-26T20:29:08.864Z,7.42
2018-03-26T20:31:35.149Z,7.36
2018-03-26T20:34:01.425Z,7.39
2018-03-26T20:36:27.680Z,7.42
2018-03-26T20:38:54.124Z,7.53
2018-03-26T20:41:20.502Z,7.59
2018-03-26T20:43:46.757Z,7.66
2018-03-26T20:46:13.088Z,7.60
2018-03-26T20:48:39.455Z,7.66
2018-03-26T20:51:05.792Z,7.70
2018-03-26T20:53:32.288Z,7.85
2018-03-26T20:55:58.662Z,7.86
2018-03-26T20:58:25.083Z,7.80
2018-03-26T21:00:51.453Z,7.84
2018-03-26T21:03:17.881Z,7.84
2018-03-26T21:05:44.110Z,7.88
2018-03-26T21:08:10.458Z,7.93
2018-03-26T21:10:37.736Z,7.84
2018-03-26T21:13:04.028Z,7.78
2018-03-26T21:15:30.696Z,7.69
2018-03-26T21:17:56.964Z,7.63
2018-03-26T21:20:23.204Z,7.58
2018-03-26T21:22:49.480Z,7.68
2018-03-26T21:25:15.720Z,7.66
2018-03-26T21:27:42.214Z,7.59
2018-03-26T21:30:08.530Z,7.48
2018-03-26T21:32:34.912Z,7.39
2018-03-26T21:35:01.243Z,7.44
2018-03-26T21:37:27.791Z,7.39
2018-03-26T21:39:54.117Z,7.20
2018-03-26T21:42:20.375Z,7.10
2018-03-26T21:44:46.798Z,7.12
2018-03-26T21:47:13.447Z,7.19
2018-03-26T21:49:39.846Z,7.21
2018-03-26T21:52:06.183Z,7.18
2018-03-26T21:54:32.529Z,6.99
2018-03-26T21:56:58.816Z,6.99
2018-03-26T21:59:25.359Z,7.06
2018-03-26T22:01:51.661Z,7.05
2018-03-26T22:04:18.220Z,7.05
2018-03-26T22:06:44.523Z,6.95
2018-03-26T22:09:10.833Z,6.87
2018-03-26T22:11:37.134Z,6.87
2018-03-26T22:14:03.485Z,6.87
2018-03-26T22:16:29.854Z,6.87
2018-03-26T22:18:56.229Z,6.81
2018-03-26T22:21:22.758Z,6.71
2018-03-26T22:23:49.049Z,6.66
2018-03-26T22:26:15.332Z,6.67
2018-03-26T22:28:41.645Z,6.71
2018-03-26T22:31:09.181Z,6.66
2018-03-26T22:33:35.469Z,6.61
2018-03-26T22:36:01.851Z,6.65
2018-03-26T22:38:28.332Z,6.68
2018-03-26T22:40:54.625Z,6.68
2018-03-26T22:43:20.919Z,6.70
2018-03-26T22:45:47.287Z,6.66
2018-03-26T22:48:13.621Z,6.68
2018-03-26T22:50:39.901Z,6.64
2018-03-26T22:53:06.379Z,6.75
2018-03-26T22:55:32.636Z,6.87
2018-03-26T22:57:59.135Z,6.87
2018-03-26T23:00:25.424Z,6.84
2018-03-26T23:02:51.857Z,6.87
2018-03-26T23:05:18.215Z,6.95
2018-03-26T23:07:44.585Z,6.98
2018-03-26T23:10:10.841Z,7.04
2018-03-26T23:12:37.173Z,7.01
2018-03-26T23:15:03.902Z,6.97
2018-03-26T23:17:30.193Z,6.95
2018-03-26T23:19:56.706Z,6.91
2018-03-26T23:22:35.052Z,6.86
2018-03-26T23:25:01.627Z,6.88
2018-03-26T23:27:27.976Z,6.90
2018-03-26T23:29:54.266Z,6.84
2018-03-26T23:32:20.757Z,6.88
2018-03-26T23:34:47.058Z,6.87
2018-03-26T23:37:13.558Z,6.87
2018-03-26T23:39:39.821Z,6.89
2018-03-26T23:42:06.389Z,6.91
2018-03-26T23:44:32.775Z,6.90
2018-03-26T23:46:59.096Z,6.91
2018-03-26T23:49:25.482Z,6.89
2018-03-26T23:51:51.918Z,6.93
2018-03-26T23:54:18.205Z,6.93
2018-03-26T23:56:44.785Z,6.94
2018-03-26T23:59:11.043Z,6.84
